Masuda Hagi Iwami Airport

About
Name: Masuda Hagi Iwami Airport
Identifier:  IWJ/RJOW
Operator:  Government
Public/Private:  Public
Local Time:  21. Sep 17:46 JST
Description: Iwami Airport is an airport located 2.8 NM Masuda, Shimane Prefecture, Japan. It is also known as Hagi-Iwami Airport due to its proximity to the city of Hagi in Yamaguchi Prefecture. It is a 2 or 3 hour drive from the old town of Iwami, its primary namesake.
Source: Wikipedia
Location
Masuda
  Japan

Runways
Identifier Length (m/ft) Surface
11/29 2,000/6,562 Asphalt concrete
Statistics
Flights per Day:
3 flights
Distance: 733km (456mi)
Flights delayed:
95% (0 flights per day delayed)
Delay Average: 12 minutes
Current Weather
 21 C (Humidity: 88%)
  0kt from variable
  Few clouds at 1,500 feet (457 meter)
  Broken clouds at 11,000 feet (3,352 meter)
  9km (6 mi.)
 METAR RJOW 210800Z VRB01KT 9999 FEW015 BKN110 21/19 Q1014

Current Flights

Arrivals
Number Arrival From Airline
Landed NH575 12:20  Tokyo  All Nippon Airways
Landed NH1103 17:05  Tokyo  All Nippon Airways

Current Delays

Departures
N/A
Arrivals
N/A

Destinations

Top Destinations
Airport Flights
per week
Seats
per week
  Tokyo (HND) 26 2,960 3 422

Airlines & Planes

Top Airlines
Airline Flights
per Day
Seats
per Day
  All Nippon Airways 3 422
Top Plane Types
Model Flights Seats
Boeing B737-800 2.0/day 332/day 332.3333333333333
Airbus A321 1.1/day 90/day 90.53333333333333
Airbus A321 Neo 0.7/day - 0